Time;durP1;ratioP1;P1;durP2;ratioP2;P2;SDS_P1;SDS_P2;PMS_P1;PMS_P2;Temp;Humidity;BMP_temperature;BMP_pressure;BME280_temperature;BME280_humidity;BME280_pressure;Samples;Min_cycle;Max_cycle;Signal;HPM_P1;HPM_P2
2022/05/05 00:01:53;;;;;;;3.55;1.57;;;;;;;10.39;53.00;100957.42;1835702;77;20882;-79
2022/05/05 00:04:22;;;;;;;4.35;1.25;;;;;;;10.34;52.46;100961.14;1835504;77;21286;-79
2022/05/05 00:06:49;;;;;;;2.37;1.32;;;;;;;10.30;53.05;100961.38;1835302;77;20883;-80
2022/05/05 00:09:15;;;;;;;2.72;1.87;;;;;;;10.26;53.49;100969.83;1835070;78;20907;-78
2022/05/05 00:14:27;;;;;;;2.10;1.10;;;;;;;10.18;52.62;100966.76;1835000;77;20930;-79
2022/05/05 00:17:03;;;;;;;2.40;1.35;;;;;;;10.11;52.62;100970.16;1835154;76;21753;-80
2022/05/05 00:19:32;;;;;;;2.02;1.02;;;;;;;10.08;52.89;100961.64;1834814;77;21045;-79
2022/05/05 00:21:59;;;;;;;5.20;1.75;;;;;;;10.04;52.16;100970.11;1834990;77;21416;-79
2022/05/05 00:24:25;;;;;;;4.45;1.45;;;;;;;10.01;52.37;100973.38;1835072;77;20879;-79
2022/05/05 00:26:52;;;;;;;1.65;1.32;;;;;;;9.98;51.98;100980.91;1835042;77;20939;-79
2022/05/05 00:29:20;;;;;;;5.17;2.00;;;;;;;9.94;52.05;100978.92;1834914;77;21195;-79
2022/05/05 00:31:47;;;;;;;1.80;1.40;;;;;;;9.89;52.77;100980.94;1834641;77;20946;-79
2022/05/05 00:34:13;;;;;;;4.33;1.60;;;;;;;9.85;52.60;100981.14;1835266;77;20950;-79
2022/05/05 00:36:40;;;;;;;1.72;1.20;;;;;;;9.82;52.75;100983.47;1834806;77;20961;-79
2022/05/05 00:39:07;;;;;;;6.33;1.57;;;;;;;9.78;52.71;100984.54;1835178;76;20997;-79
2022/05/05 00:41:35;;;;;;;4.92;1.60;;;;;;;9.74;53.39;100992.20;1835668;78;21238;-77
2022/05/05 00:44:03;;;;;;;5.50;1.60;;;;;;;9.70;53.35;100995.89;1835001;78;20863;-79
2022/05/05 00:46:31;;;;;;;3.47;1.50;;;;;;;9.65;53.51;101002.67;1834828;76;20946;-79
2022/05/05 00:48:58;;;;;;;4.50;1.80;;;;;;;9.61;52.89;101004.21;1834816;78;20883;-80
2022/05/05 00:51:24;;;;;;;2.75;1.15;;;;;;;9.57;53.09;101003.97;1834800;77;20855;-80
2022/05/05 00:53:52;;;;;;;2.83;1.45;;;;;;;9.50;53.37;101006.89;1835144;76;21835;-79
2022/05/05 00:56:18;;;;;;;3.72;1.62;;;;;;;9.47;53.16;101012.28;1834925;75;20902;-79
2022/05/05 00:58:46;;;;;;;3.47;1.40;;;;;;;9.45;53.33;101011.95;1834843;77;20820;-80
2022/05/05 01:01:16;;;;;;;2.27;1.45;;;;;;;9.41;53.06;101007.34;1834774;78;20887;-80
2022/05/05 01:03:44;;;;;;;5.03;1.95;;;;;;;9.38;53.76;101017.10;1834853;77;20902;-78
2022/05/05 01:06:10;;;;;;;4.20;1.77;;;;;;;9.34;53.78;101020.34;1834754;77;21888;-78
2022/05/05 01:08:37;;;;;;;2.67;1.50;;;;;;;9.29;54.34;101017.95;1834756;76;20950;-79
2022/05/05 01:11:03;;;;;;;3.20;1.50;;;;;;;9.27;55.09;101021.55;1835259;77;20926;-79
2022/05/05 01:13:31;;;;;;;3.08;1.47;;;;;;;9.23;54.78;101021.33;1834831;77;20883;-79
2022/05/05 01:15:58;;;;;;;3.27;1.12;;;;;;;9.18;54.79;101020.68;1834716;78;20966;-79
2022/05/05 01:18:25;;;;;;;2.92;1.30;;;;;;;9.13;54.42;101030.06;1835088;78;21063;-79
2022/05/05 01:20:54;;;;;;;2.60;1.27;;;;;;;9.10;54.82;101030.22;1834733;77;20898;-79
2022/05/05 01:23:21;;;;;;;4.22;1.70;;;;;;;9.07;55.90;101027.72;1835622;77;20910;-78
2022/05/05 01:28:34;;;;;;;5.92;1.02;;;;;;;8.99;55.17;101037.72;1838089;77;20847;-74
2022/05/05 01:31:02;;;;;;;3.30;0.98;;;;;;;8.95;55.10;101034.86;1838233;77;21181;-76
2022/05/05 01:33:30;;;;;;;2.30;1.27;;;;;;;8.90;54.62;101041.14;1835765;77;20974;-79
2022/05/05 01:35:58;;;;;;;14.83;2.58;;;;;;;8.85;55.65;101040.52;1834849;77;22082;-79
2022/05/05 01:38:37;;;;;;;2.75;1.10;;;;;;;8.81;54.85;101035.03;1834732;78;20907;-79
2022/05/05 01:41:10;;;;;;;1.37;0.90;;;;;;;8.76;54.94;101034.84;1834764;78;20875;-78
2022/05/05 01:43:37;;;;;;;1.72;1.40;;;;;;;8.73;54.10;101046.76;1834765;76;21249;-79
2022/05/05 01:46:05;;;;;;;7.20;1.70;;;;;;;8.69;54.06;101046.91;1834772;77;20831;-80
2022/05/05 01:48:32;;;;;;;2.00;0.90;;;;;;;8.67;54.29;101047.87;1834749;78;20951;-79
2022/05/05 01:51:00;;;;;;;3.62;1.72;;;;;;;8.62;54.59;101057.69;1834796;78;20938;-78
2022/05/05 01:53:26;;;;;;;3.22;1.40;;;;;;;8.59;54.37;101054.77;1834839;77;20993;-79
2022/05/05 01:55:53;;;;;;;3.00;1.25;;;;;;;8.55;54.67;101057.58;1835059;77;21190;-79
2022/05/05 01:58:19;;;;;;;3.60;1.62;;;;;;;8.53;54.92;101065.95;1855485;77;21409;-79
2022/05/05 02:00:46;;;;;;;3.60;1.80;;;;;;;8.47;55.48;101062.70;1859997;77;20981;-79
2022/05/05 02:03:13;;;;;;;5.42;1.80;;;;;;;8.43;55.50;101074.66;1860023;77;20900;-80
2022/05/05 02:05:41;;;;;;;7.25;1.37;;;;;;;8.40;56.42;101078.67;1859974;77;20919;-78
2022/05/05 02:08:10;;;;;;;3.50;2.08;;;;;;;8.36;56.81;101075.80;1860892;77;21250;-78
2022/05/05 02:10:36;;;;;;;4.50;2.55;;;;;;;8.31;57.21;101089.06;1860260;77;20855;-79
2022/05/05 02:13:04;;;;;;;4.62;1.80;;;;;;;8.26;57.14;101087.11;1859893;76;21376;-78
2022/05/05 02:15:34;;;;;;;9.40;1.55;;;;;;;8.21;57.39;101091.23;1859866;76;20876;-79
2022/05/05 02:18:10;;;;;;;3.92;1.65;;;;;;;8.18;57.74;101091.80;1860359;75;20875;-78
2022/05/05 02:20:39;;;;;;;3.65;1.45;;;;;;;8.15;58.12;101095.86;1860012;77;21297;-78
2022/05/05 02:23:06;;;;;;;3.62;1.87;;;;;;;8.11;58.50;101095.13;1860194;77;21030;-79
2022/05/05 02:25:33;;;;;;;5.95;1.98;;;;;;;8.04;59.07;101107.59;1860384;77;20867;-79
2022/05/05 02:28:01;;;;;;;2.22;1.52;;;;;;;7.99;58.39;101106.95;1859851;77;20871;-79
2022/05/05 02:30:28;;;;;;;7.87;1.50;;;;;;;7.95;58.68;101104.06;1860032;76;20966;-79
2022/05/05 02:32:54;;;;;;;4.37;1.50;;;;;;;7.93;58.67;101113.72;1857369;76;21060;-80
2022/05/05 02:35:21;;;;;;;2.77;2.17;;;;;;;7.94;57.81;101115.88;1859795;77;21380;-79
2022/05/05 02:40:35;;;;;;;4.62;1.60;;;;;;;7.96;56.89;101121.88;1860005;77;20911;-79
2022/05/05 02:43:01;;;;;;;7.10;1.37;;;;;;;7.98;55.77;101130.08;1860076;77;21527;-79
2022/05/05 02:45:28;;;;;;;5.30;2.00;;;;;;;7.99;55.77;101125.70;1860030;76;21243;-80
2022/05/05 02:47:54;;;;;;;2.95;1.52;;;;;;;8.00;54.92;101127.38;1859924;77;20856;-78
2022/05/05 02:50:21;;;;;;;2.60;1.10;;;;;;;8.01;55.93;101136.47;1860141;77;21619;-77
2022/05/05 02:52:47;;;;;;;3.25;1.20;;;;;;;8.01;55.03;101137.77;1861288;77;21482;-79
2022/05/05 02:55:14;;;;;;;4.58;1.65;;;;;;;8.01;54.90;101141.69;1859931;77;20859;-80
2022/05/05 02:57:41;;;;;;;8.48;1.72;;;;;;;8.00;54.57;101141.75;1858900;75;21145;-79
2022/05/05 03:00:11;;;;;;;4.37;1.60;;;;;;;7.97;54.60;101148.41;1860171;77;20998;-79
2022/05/05 03:02:38;;;;;;;3.08;1.50;;;;;;;7.94;54.14;101142.86;1859991;77;21415;-80
2022/05/05 03:05:06;;;;;;;2.12;1.50;;;;;;;7.93;54.03;101148.14;1859844;77;21437;-80
2022/05/05 03:07:32;;;;;;;6.62;1.60;;;;;;;7.91;54.07;101148.66;1860381;77;20872;-79
2022/05/05 03:09:59;;;;;;;5.25;1.92;;;;;;;7.91;54.01;101147.34;1859934;77;21712;-79
2022/05/05 03:12:25;;;;;;;2.30;1.30;;;;;;;7.92;53.96;101156.89;1859864;76;20966;-80
2022/05/05 03:14:52;;;;;;;3.60;1.42;;;;;;;7.91;54.17;101152.56;1860262;77;20824;-79
2022/05/05 03:17:18;;;;;;;4.55;1.70;;;;;;;7.93;54.37;101155.97;1859907;77;20876;-80
2022/05/05 03:19:45;;;;;;;3.67;1.25;;;;;;;7.94;54.45;101162.87;1860176;77;20871;-79
2022/05/05 03:22:11;;;;;;;7.62;2.10;;;;;;;7.95;54.48;101171.12;1860351;77;21412;-80
2022/05/05 03:24:38;;;;;;;3.35;1.42;;;;;;;7.95;54.15;101173.73;1859946;77;20962;-78
2022/05/05 03:27:05;;;;;;;3.87;2.08;;;;;;;7.95;53.83;101175.05;1861867;76;20970;-77
2022/05/05 03:29:32;;;;;;;4.53;1.42;;;;;;;7.96;53.65;101175.42;1862787;76;21031;-77
2022/05/05 03:31:59;;;;;;;4.72;1.20;;;;;;;7.97;53.76;101176.67;1861169;76;20962;-78
2022/05/05 03:34:26;;;;;;;5.70;2.02;;;;;;;7.99;53.76;101180.55;1861422;77;21865;-79
2022/05/05 03:36:53;;;;;;;4.10;1.62;;;;;;;8.00;53.58;101185.68;1860354;77;21403;-81
2022/05/05 03:39:19;;;;;;;3.08;1.87;;;;;;;8.02;53.38;101186.47;1859968;77;20966;-79
2022/05/05 03:41:46;;;;;;;6.47;1.77;;;;;;;8.05;53.67;101188.14;1859888;77;21457;-79
2022/05/05 03:44:13;;;;;;;3.37;1.45;;;;;;;8.07;53.61;101195.00;1860458;77;20907;-81
2022/05/05 03:46:40;;;;;;;2.17;1.37;;;;;;;8.10;53.43;101186.18;1860100;77;21229;-80
2022/05/05 03:49:09;;;;;;;6.05;2.05;;;;;;;8.14;53.62;101192.98;1860094;77;20951;-80
2022/05/05 03:51:36;;;;;;;5.72;1.92;;;;;;;8.19;53.49;101198.02;1860321;76;20872;-81
2022/05/05 03:54:03;;;;;;;1.65;1.22;;;;;;;8.27;53.49;101207.68;1860104;77;20926;-79
2022/05/05 03:56:30;;;;;;;3.12;1.77;;;;;;;8.35;53.40;101212.14;1860132;77;20867;-80
2022/05/05 03:58:56;;;;;;;3.12;1.50;;;;;;;8.44;53.38;101208.34;1860077;77;21202;-80
2022/05/05 04:01:23;;;;;;;3.20;1.75;;;;;;;8.52;53.49;101210.65;1860022;77;21515;-79
2022/05/05 04:03:49;;;;;;;4.75;1.92;;;;;;;8.64;53.45;101211.42;1860121;77;20871;-80
2022/05/05 04:06:17;;;;;;;1.87;1.20;;;;;;;8.75;53.09;101216.20;1860499;77;20887;-80
2022/05/05 04:08:43;;;;;;;4.53;1.42;;;;;;;8.90;53.17;101217.69;1860209;77;20859;-80
2022/05/05 04:11:10;;;;;;;5.00;1.32;;;;;;;9.07;52.69;101211.73;1860103;77;21179;-81
2022/05/05 04:13:37;;;;;;;5.92;2.02;;;;;;;9.28;51.71;101225.61;1860282;77;20911;-80
2022/05/05 04:16:04;;;;;;;5.35;1.42;;;;;;;9.49;51.54;101221.19;1860101;76;21242;-79
2022/05/05 04:18:33;;;;;;;5.90;2.20;;;;;;;9.73;51.04;101218.34;1861452;77;20887;-80
2022/05/05 04:20:59;;;;;;;3.15;1.82;;;;;;;9.98;50.15;101221.11;1860540;77;20907;-79
2022/05/05 04:23:26;;;;;;;2.70;1.30;;;;;;;10.15;49.91;101223.77;1860540;77;21215;-79
2022/05/05 04:25:53;;;;;;;5.30;2.50;;;;;;;10.33;49.36;101225.98;1860303;77;21298;-80
2022/05/05 04:28:19;;;;;;;2.58;1.10;;;;;;;10.52;49.37;101229.87;1860798;77;20951;-81
2022/05/05 04:30:46;;;;;;;10.13;1.75;;;;;;;10.82;49.05;101231.86;1860319;77;20832;-80
2022/05/05 04:33:13;;;;;;;1.87;1.37;;;;;;;11.06;48.35;101235.84;1860666;77;20899;-81
2022/05/05 04:35:39;;;;;;;2.00;1.32;;;;;;;11.16;47.76;101238.81;1863150;77;21093;-80
2022/05/05 04:38:06;;;;;;;2.75;1.30;;;;;;;11.24;47.46;101240.58;1861504;77;20919;-77
2022/05/05 04:40:33;;;;;;;1.85;1.15;;;;;;;11.35;47.91;101243.95;1863439;77;20887;-77
2022/05/05 04:42:59;;;;;;;6.00;2.25;;;;;;;11.45;48.03;101236.42;1863151;77;20977;-79
2022/05/05 04:45:26;;;;;;;7.42;1.32;;;;;;;11.56;48.20;101246.75;1860823;76;20840;-79
2022/05/05 04:47:52;;;;;;;2.75;1.30;;;;;;;11.67;47.41;101244.86;1861046;76;21240;-82
2022/05/05 04:50:19;;;;;;;2.20;1.12;;;;;;;11.79;46.78;101252.06;1861554;77;20954;-80
2022/05/05 04:52:45;;;;;;;4.83;1.77;;;;;;;11.88;46.59;101255.16;1861035;77;20839;-79
2022/05/05 04:55:12;;;;;;;5.12;1.62;;;;;;;12.05;46.79;101256.39;1860721;77;20828;-79
2022/05/05 04:57:39;;;;;;;3.98;1.17;;;;;;;12.40;46.13;101264.88;1860625;77;21436;-81
2022/05/05 05:00:07;;;;;;;5.17;1.30;;;;;;;12.78;46.14;101257.89;1861249;77;21200;-80
2022/05/05 05:02:34;;;;;;;3.40;1.20;;;;;;;13.12;43.89;101266.88;1861409;77;20867;-80
2022/05/05 05:05:00;;;;;;;3.58;1.52;;;;;;;13.39;44.04;101281.02;1861303;77;20990;-82
2022/05/05 05:07:27;;;;;;;2.55;1.40;;;;;;;13.78;43.31;101274.67;1861086;77;20962;-80
2022/05/05 05:09:54;;;;;;;2.65;1.05;;;;;;;14.12;42.19;101276.03;1861086;77;20903;-81
2022/05/05 05:12:20;;;;;;;3.83;1.30;;;;;;;14.37;41.71;101275.27;1861371;77;21098;-82
2022/05/05 05:14:47;;;;;;;7.33;1.20;;;;;;;14.63;41.59;101270.95;1860389;77;20938;-82
2022/05/05 05:17:15;;;;;;;6.67;1.12;;;;;;;14.86;40.70;101281.77;1860457;77;20946;-80
2022/05/05 05:19:42;;;;;;;5.25;1.00;;;;;;;15.13;39.89;101277.23;1860456;76;20888;-81
2022/05/05 05:22:08;;;;;;;3.83;0.98;;;;;;;15.46;39.38;101279.81;1860239;77;20923;-79
2022/05/05 05:24:35;;;;;;;5.25;1.50;;;;;;;15.77;39.11;101282.14;1860465;77;21202;-79
2022/05/05 05:27:01;;;;;;;4.70;1.17;;;;;;;16.10;39.09;101281.52;1860402;76;21334;-79
2022/05/05 05:29:28;;;;;;;2.67;1.30;;;;;;;16.44;37.77;101285.64;1860131;77;20954;-80
2022/05/05 05:31:55;;;;;;;2.70;1.20;;;;;;;16.61;36.70;101289.67;1860211;77;20875;-81
2022/05/05 05:34:22;;;;;;;5.90;1.52;;;;;;;16.71;36.06;101293.33;1860504;76;21357;-80
2022/05/05 05:36:53;;;;;;;1.05;0.70;;;;;;;16.81;35.90;101299.66;1860086;76;21112;-80
2022/05/05 05:39:18;;;;;;;4.97;1.60;;;;;;;16.97;35.82;101308.61;1857974;76;20835;-81
2022/05/05 05:41:44;;;;;;;4.35;1.42;;;;;;;17.06;35.33;101303.94;1860358;77;21329;-81
2022/05/05 05:44:11;;;;;;;4.50;1.20;;;;;;;17.13;35.61;101307.80;1860796;76;20919;-78
2022/05/05 05:46:38;;;;;;;5.20;1.00;;;;;;;17.27;35.80;101309.38;1860481;76;21447;-81
2022/05/05 05:49:09;;;;;;;8.98;2.20;;;;;;;17.49;35.14;101313.86;1860406;77;21209;-80
2022/05/05 05:51:34;;;;;;;4.97;1.30;;;;;;;17.68;35.09;101310.63;1859165;77;20867;-80
2022/05/05 05:54:00;;;;;;;3.02;1.10;;;;;;;18.03;35.28;101308.33;1860117;77;21444;-81
2022/05/05 05:56:27;;;;;;;5.12;1.20;;;;;;;18.37;34.43;101316.20;1860628;77;20981;-81
2022/05/05 05:58:54;;;;;;;3.47;1.32;;;;;;;18.58;33.70;101313.09;1848472;77;20899;-80
2022/05/05 06:03:53;;;;;;;4.00;1.02;;;;;;;18.67;33.53;101321.28;1835252;78;21194;-80
2022/05/05 06:03:56;;;;;;;2.75;0.90;;;;;;;18.90;32.80;101314.92;1830950;78;20887;-80
2022/05/05 06:06:24;;;;;;;5.67;1.22;;;;;;;19.13;32.00;101322.27;1835045;78;20929;-82
2022/05/05 06:08:51;;;;;;;3.67;1.12;;;;;;;19.21;31.52;101330.95;1835417;78;20961;-81
2022/05/05 06:11:19;;;;;;;13.88;8.08;;;;;;;19.24;31.75;101335.49;1835649;77;20950;-82
2022/05/05 06:13:45;;;;;;;4.83;2.60;;;;;;;19.30;31.09;101326.16;1835082;78;21769;-81
2022/05/05 06:16:12;;;;;;;8.40;3.92;;;;;;;19.40;31.32;101336.34;1834892;76;20840;-82
2022/05/05 06:18:40;;;;;;;5.03;1.60;;;;;;;19.64;30.91;101337.38;1835058;77;20966;-81
2022/05/05 06:21:07;;;;;;;5.42;1.72;;;;;;;19.83;30.46;101335.80;1835102;78;20954;-81
2022/05/05 06:23:33;;;;;;;3.40;2.10;;;;;;;19.94;30.12;101342.34;1834901;77;20863;-81
2022/05/05 06:26:00;;;;;;;3.67;1.15;;;;;;;20.07;29.73;101341.61;1834990;77;21147;-81
2022/05/05 06:28:27;;;;;;;2.65;1.37;;;;;;;20.24;29.63;101338.79;1835479;77;20949;-81
2022/05/05 06:30:54;;;;;;;3.98;1.37;;;;;;;20.45;30.79;101340.03;1835097;77;20906;-82
2022/05/05 06:33:20;;;;;;;4.37;1.00;;;;;;;20.80;29.56;101345.31;1835396;76;20871;-81
2022/05/05 06:35:47;;;;;;;3.12;0.78;;;;;;;21.05;28.69;101351.87;1835400;76;20932;-81
2022/05/05 06:38:13;;;;;;;5.42;1.30;;;;;;;21.38;27.88;101361.72;1835257;77;21144;-81
2022/05/05 06:40:42;;;;;;;4.22;3.52;;;;;;;21.44;27.10;101363.02;1835576;78;20927;-82
2022/05/05 06:43:09;;;;;;;4.87;1.82;;;;;;;21.32;28.18;101363.63;1835172;76;21001;-80
2022/05/05 06:45:36;;;;;;;4.42;1.20;;;;;;;21.39;28.15;101363.41;1835079;78;20925;-81
2022/05/05 06:48:03;;;;;;;4.08;1.07;;;;;;;21.59;27.39;101371.38;1835368;76;21348;-81
2022/05/05 06:50:29;;;;;;;7.92;0.85;;;;;;;21.82;26.98;101375.38;1835147;77;21214;-80
2022/05/05 06:53:00;;;;;;;4.53;1.00;;;;;;;22.01;26.73;101371.79;1834944;77;21395;-80
2022/05/05 06:55:25;;;;;;;3.83;2.55;;;;;;;22.10;26.18;101387.42;1834946;78;20911;-82
2022/05/05 06:57:52;;;;;;;8.18;1.52;;;;;;;22.30;26.30;101370.81;1835039;78;20835;-82
2022/05/05 07:00:19;;;;;;;2.80;0.60;;;;;;;22.53;25.63;101377.89;1848692;77;20893;-80
2022/05/05 07:02:46;;;;;;;7.33;1.57;;;;;;;22.76;24.94;101380.45;1849384;76;23133;-80
2022/05/05 07:05:26;;;;;;;3.80;0.78;;;;;;;22.83;24.72;101375.32;1849255;76;20897;-81
2022/05/05 07:07:54;;;;;;;4.72;1.17;;;;;;;22.87;24.53;101387.40;1849281;77;20913;-81
2022/05/05 07:13:07;;;;;;;3.30;0.80;;;;;;;22.96;24.56;101390.98;1849545;77;20864;-82
2022/05/05 07:15:34;;;;;;;4.37;0.78;;;;;;;23.00;24.79;101383.03;1849663;77;21269;-81
2022/05/05 07:18:01;;;;;;;4.53;0.90;;;;;;;23.12;24.25;101395.19;1849351;77;20917;-82
2022/05/05 07:20:27;;;;;;;4.03;1.17;;;;;;;23.32;23.97;101397.17;1849548;77;21458;-82
2022/05/05 07:22:56;;;;;;;4.03;1.17;;;;;;;23.56;23.98;101395.12;1849526;77;20932;-81
2022/05/05 07:25:22;;;;;;;5.10;0.88;;;;;;;23.94;24.63;101399.71;1849650;77;20887;-83
2022/05/05 07:27:48;;;;;;;4.42;1.12;;;;;;;24.38;24.48;101408.92;1850076;77;21077;-81
2022/05/05 07:30:17;;;;;;;3.85;0.47;;;;;;;24.69;22.50;101395.45;1849648;77;20912;-82
2022/05/05 07:32:43;;;;;;;6.53;0.82;;;;;;;24.66;22.03;101400.66;1849968;77;20877;-82
2022/05/05 07:35:11;;;;;;;4.42;0.70;;;;;;;24.49;21.84;101398.43;1850106;77;20918;-83
2022/05/05 07:37:39;;;;;;;2.98;0.82;;;;;;;24.37;21.67;101387.66;1850753;77;20987;-84
2022/05/05 07:40:07;;;;;;;4.28;0.60;;;;;;;24.27;21.39;101396.33;1850887;77;21225;-83
2022/05/05 07:42:37;;;;;;;1.55;0.93;;;;;;;23.90;21.40;101389.48;1850872;77;20917;-82
2022/05/05 07:45:04;;;;;;;3.12;1.30;;;;;;;23.63;22.51;101391.32;1852063;77;20886;-80
2022/05/05 07:47:33;;;;;;;7.67;0.93;;;;;;;23.78;22.66;101394.29;1853143;77;20992;-81
2022/05/05 07:50:02;;;;;;;1.50;0.93;;;;;;;24.05;22.10;101391.06;1853246;77;22028;-80
2022/05/05 07:52:29;;;;;;;2.05;0.70;;;;;;;24.07;21.63;101403.80;1852964;77;21202;-80
2022/05/05 07:54:55;;;;;;;1.15;0.57;;;;;;;23.96;21.80;101389.67;1852605;77;20866;-81
2022/05/05 07:57:22;;;;;;;8.18;0.80;;;;;;;23.85;21.65;101396.66;1851910;77;20945;-84
2022/05/05 07:59:49;;;;;;;2.33;0.57;;;;;;;23.76;22.16;101395.78;1842522;77;20879;-82
2022/05/05 08:02:16;;;;;;;1.62;0.50;;;;;;;23.96;22.18;101399.56;1836708;76;20985;-81
2022/05/05 08:04:43;;;;;;;1.05;0.40;;;;;;;24.17;21.66;101399.16;1836108;78;21211;-81
2022/05/05 08:07:10;;;;;;;1.32;0.70;;;;;;;24.21;21.58;101396.47;1836032;78;20910;-82
2022/05/05 08:09:37;;;;;;;2.00;0.35;;;;;;;24.19;21.93;101401.18;1836340;77;20997;-83
2022/05/05 08:12:07;;;;;;;3.47;1.17;;;;;;;24.30;21.73;101390.63;1836499;77;20883;-83
2022/05/05 08:14:34;;;;;;;2.30;0.70;;;;;;;24.43;22.06;101395.53;1836294;78;20879;-82
2022/05/05 08:17:00;;;;;;;11.65;1.10;;;;;;;24.74;20.97;101397.95;1836217;78;21091;-82
2022/05/05 08:19:26;;;;;;;2.87;0.70;;;;;;;24.77;20.79;101394.13;1836278;77;20902;-79
2022/05/05 08:21:56;;;;;;;2.65;0.60;;;;;;;25.00;20.82;101394.30;1836259;77;20902;-80
2022/05/05 08:29:53;;;;;;;4.20;0.60;;;;;;;25.20;20.14;101401.53;1835765;77;21279;-82
2022/05/05 08:32:20;;;;;;;1.52;0.70;;;;;;;25.07;20.29;101395.81;1836469;76;20875;-82
2022/05/05 08:34:46;;;;;;;3.75;0.57;;;;;;;24.92;20.48;101395.16;1835846;76;20875;-80
2022/05/05 08:37:13;;;;;;;3.50;0.68;;;;;;;24.92;20.53;101392.95;1837146;77;20859;-84
2022/05/05 08:39:39;;;;;;;3.00;0.80;;;;;;;24.77;21.21;101396.30;1836190;77;20919;-82
2022/05/05 08:42:07;;;;;;;3.83;0.88;;;;;;;24.85;21.04;101387.41;1836018;77;21373;-80
2022/05/05 08:44:33;;;;;;;3.08;0.85;;;;;;;24.97;20.78;101409.41;1836307;77;21337;-82
2022/05/05 08:47:00;;;;;;;2.85;0.88;;;;;;;25.08;20.47;101399.67;1835791;77;20919;-81
2022/05/05 08:49:27;;;;;;;3.55;1.30;;;;;;;25.09;20.31;101408.56;1835841;77;20902;-80
2022/05/05 08:52:14;;;;;;;7.17;0.93;;;;;;;24.90;20.59;101406.55;1836262;77;20903;-82
2022/05/05 08:54:41;;;;;;;3.08;1.00;;;;;;;24.67;20.30;101403.66;1835487;77;21147;-82
2022/05/05 08:57:07;;;;;;;2.33;0.70;;;;;;;24.63;20.17;101397.45;1836027;77;21420;-81
2022/05/05 08:59:34;;;;;;;3.30;0.53;;;;;;;24.57;20.42;101411.87;1845330;77;20907;-81
2022/05/05 09:02:01;;;;;;;3.85;1.00;;;;;;;24.70;20.83;101410.53;1861079;77;20856;-82
2022/05/05 09:04:27;;;;;;;6.35;1.12;;;;;;;24.76;20.70;101398.63;1861409;77;20954;-83
2022/05/05 09:06:54;;;;;;;5.53;0.98;;;;;;;24.76;20.28;101399.98;1860951;76;21330;-83
2022/05/05 09:09:33;;;;;;;2.77;0.80;;;;;;;24.55;20.64;101400.97;1860239;77;20922;-82
2022/05/05 09:12:18;;;;;;;5.67;0.90;;;;;;;24.44;20.90;101399.91;1860774;77;20977;-83
2022/05/05 09:14:50;;;;;;;2.55;1.22;;;;;;;24.35;20.60;101406.58;1860341;77;20891;-83
2022/05/05 09:17:20;;;;;;;6.17;0.80;;;;;;;24.31;21.22;101399.03;1860717;77;21318;-82
2022/05/05 09:19:54;;;;;;;2.90;0.82;;;;;;;24.25;20.34;101403.70;1861170;76;21298;-80
2022/05/05 09:22:24;;;;;;;3.58;0.80;;;;;;;24.14;19.99;101391.42;1860131;77;20871;-82
2022/05/05 09:24:52;;;;;;;2.25;0.80;;;;;;;24.02;20.84;101404.79;1860481;76;20954;-82
2022/05/05 09:27:26;;;;;;;4.95;0.90;;;;;;;23.94;20.49;101410.43;1860699;77;20919;-82
2022/05/05 09:30:13;;;;;;;1.32;0.62;;;;;;;23.97;20.60;101406.62;1860401;77;20871;-82
2022/05/05 09:32:43;;;;;;;4.00;0.80;;;;;;;24.00;20.07;101396.91;1861597;76;21311;-81
2022/05/05 09:35:16;;;;;;;1.47;0.57;;;;;;;24.00;20.05;101407.12;1862152;77;20923;-82
2022/05/05 09:37:49;;;;;;;1.40;0.57;;;;;;;24.15;20.61;101405.18;1860502;77;20836;-82
2022/05/05 09:40:20;;;;;;;3.45;0.95;;;;;;;24.36;20.04;101405.56;1860073;77;21435;-81
2022/05/05 09:42:54;;;;;;;10.65;7.87;;;;;;;24.25;20.27;101403.19;1860116;77;21615;-82
2022/05/05 09:45:27;;;;;;;2.15;0.60;;;;;;;24.12;20.17;101407.69;1860055;77;21175;-80
2022/05/05 09:47:57;;;;;;;3.60;0.67;;;;;;;24.14;19.99;101413.70;1860327;77;20872;-80
2022/05/05 09:50:26;;;;;;;1.57;0.50;;;;;;;24.08;19.92;101404.13;1860105;77;20899;-82
2022/05/05 09:58:26;;;;;;;2.95;0.70;;;;;;;23.95;20.22;101407.27;1860314;77;21247;-82
2022/05/05 10:01:04;;;;;;;4.78;0.70;;;;;;;23.83;20.26;101408.54;1860198;77;21322;-83
2022/05/05 10:06:43;;;;;;;3.35;0.72;;;;;;;24.13;20.27;101408.02;1860574;77;20947;-82
2022/05/05 10:09:16;;;;;;;5.50;0.72;;;;;;;24.44;20.29;101416.83;1860153;76;20915;-81
2022/05/05 10:11:43;;;;;;;1.77;0.80;;;;;;;24.54;19.68;101416.20;1859979;76;21128;-81
2022/05/05 10:14:13;;;;;;;3.35;0.82;;;;;;;24.69;20.17;101415.06;1857683;77;20900;-82
2022/05/05 10:16:42;;;;;;;1.00;0.47;;;;;;;24.91;20.23;101417.61;1860706;77;21428;-82
2022/05/05 10:19:10;;;;;;;5.47;0.78;;;;;;;25.01;19.65;101404.02;1860097;77;20899;-81
2022/05/05 10:21:54;;;;;;;8.43;0.88;;;;;;;25.11;20.16;101418.11;1860088;77;20919;-81
2022/05/05 10:24:36;;;;;;;;;;;;;;;25.15;18.89;101417.29;1862173;77;20864;-84
2022/05/05 10:27:03;;;;;;;80.97;72.08;;;;;;;25.09;19.06;101424.16;1859137;77;20091;-82
2022/05/05 10:29:35;;;;;;;2.40;2.08;;;;;;;25.13;19.02;101416.61;1859924;77;21369;-81
2022/05/05 10:32:09;;;;;;;4.40;2.60;;;;;;;25.14;18.80;101416.94;1860086;77;21389;-83
2022/05/05 10:34:41;;;;;;;4.40;0.93;;;;;;;25.05;19.16;101420.63;1859919;77;20942;-83
2022/05/05 10:37:10;;;;;;;3.22;0.90;;;;;;;25.18;19.05;101408.89;1859921;77;21861;-83
2022/05/05 10:39:45;;;;;;;5.37;0.85;;;;;;;25.24;18.71;101414.96;1859883;76;20846;-80
2022/05/05 10:42:18;;;;;;;2.15;1.15;;;;;;;25.18;18.43;101410.23;1842885;77;21451;-83
2022/05/05 10:45:12;;;;;;;7.83;0.88;;;;;;;25.33;18.89;101405.89;1860109;76;20872;-83
2022/05/05 10:48:06;;;;;;;5.58;0.78;;;;;;;25.49;19.04;101407.70;1860429;77;20962;-83
2022/05/05 10:50:43;;;;;;;3.58;0.93;;;;;;;25.68;18.42;101410.53;1859817;76;21151;-82
2022/05/05 10:53:41;;;;;;;7.53;1.00;;;;;;;25.54;18.51;101412.56;1848476;76;20887;-83
2022/05/05 10:56:28;;;;;;;3.40;0.70;;;;;;;25.55;18.72;101411.56;1860297;77;20879;-81
2022/05/05 10:59:06;;;;;;;1.10;0.60;;;;;;;25.68;19.14;101423.10;1860571;77;21456;-84
2022/05/05 11:01:50;;;;;;;2.37;0.62;;;;;;;25.80;17.66;101415.02;1852075;77;20901;-83
2022/05/05 11:04:23;;;;;;;4.35;1.17;;;;;;;25.57;17.96;101421.64;1851107;77;21219;-80
2022/05/05 11:07:23;;;;;;;3.33;0.90;;;;;;;25.49;18.86;101421.13;1849105;76;20928;-82
2022/05/05 11:09:50;;;;;;;1.07;1.02;;;;;;;25.64;19.34;101432.86;1849066;77;20964;-81
2022/05/05 11:23:09;;;;;;;1.45;0.50;;;;;;;25.01;18.52;101418.77;1758446;81;20991;-83
2022/05/05 11:25:43;;;;;;;3.20;1.07;;;;;;;24.92;18.38;101430.03;1758231;81;21385;-82
2022/05/05 11:28:10;;;;;;;;;;;;;;;24.75;18.41;101425.14;1762143;81;20888;-82
2022/05/05 11:30:37;;;;;;;2.42;0.70;;;;;;;24.66;18.12;101424.80;1759169;81;20112;-81
2022/05/05 11:33:06;;;;;;;8.08;0.95;;;;;;;24.50;18.01;101408.17;1758395;81;21127;-82
2022/05/05 11:35:32;;;;;;;0.72;0.55;;;;;;;24.30;17.76;101405.38;1758312;80;21022;-83
2022/05/05 11:37:59;;;;;;;3.40;0.70;;;;;;;24.04;18.40;101421.55;1758622;81;20881;-82
2022/05/05 11:40:26;;;;;;;4.12;0.72;;;;;;;23.80;18.48;101424.44;1758531;80;20972;-82
2022/05/05 11:45:38;;;;;;;2.85;0.80;;;;;;;23.06;19.37;101421.22;1758358;81;21278;-82
2022/05/05 11:48:16;;;;;;;2.80;0.60;;;;;;;22.73;20.01;101426.22;1758693;81;20897;-81
2022/05/05 11:50:43;;;;;;;1.45;1.02;;;;;;;22.54;19.79;101424.54;1758225;81;20920;-83
2022/05/05 11:53:17;;;;;;;3.47;1.05;;;;;;;22.36;20.11;101428.98;1758330;81;21022;-81
2022/05/05 11:55:49;;;;;;;2.80;0.75;;;;;;;22.14;20.02;101413.69;1758510;81;20982;-83
2022/05/05 12:01:36;;;;;;;2.58;1.25;;;;;;;21.84;19.87;101432.65;1757150;81;21830;-81
2022/05/05 12:03:29;;;;;;;2.10;0.62;;;;;;;21.33;19.56;101430.69;1758464;81;20978;-83
2022/05/05 12:05:56;;;;;;;0.70;0.68;;;;;;;20.99;20.32;101417.80;1758211;81;20888;-82
2022/05/05 12:08:22;;;;;;;1.80;0.80;;;;;;;20.70;20.50;101423.95;1673950;83;20978;-80
2022/05/05 12:10:49;;;;;;;2.58;0.88;;;;;;;20.35;20.56;101418.25;1726186;83;21329;-82
2022/05/05 12:13:15;;;;;;;1.12;0.65;;;;;;;20.12;21.33;101435.77;1722523;83;20935;-82
2022/05/05 12:15:42;;;;;;;7.80;1.07;;;;;;;20.01;21.90;101430.05;1717098;82;21014;-80
2022/05/05 12:18:17;;;;;;;1.15;0.60;;;;;;;19.91;21.96;101437.14;1717321;83;21334;-83